SULAYMANIYAH INTERNATIONAL AIRPORT
  • SulyAir
  • SulyAir
1 1
Arrival

ArrivalsMore >>

Departure

DeparturesMore >>

TAF

TAF ORSU 042300Z 0500/0524 04016KT CAVOK
TEMPO 0507/0518 G26KT
BECMG 0508/0510 9999 FEW045
BECMG 0516/0518 CAVOK=

METARs

METAR ORSU 050000Z 04014KT CAVOK 32/09 Q1004=